createdAt,value
2018-08-06T04:00:59.680Z,79.36
2018-08-06T04:01:59.556Z,78.88
2018-08-06T04:03:52.251Z,79.16
2018-08-06T04:04:52.129Z,79.45
2018-08-06T04:06:44.807Z,79.93
2018-08-06T04:07:44.699Z,79.55
2018-08-06T04:09:37.400Z,79.83
2018-08-06T04:10:37.282Z,79.74
2018-08-06T04:12:29.953Z,80.12
2018-08-06T04:13:29.943Z,80.32
2018-08-06T04:15:22.540Z,79.74
2018-08-06T04:16:22.425Z,79.83
2018-08-06T04:18:15.110Z,80.22
2018-08-06T04:19:15.004Z,80.03
2018-08-06T04:21:07.699Z,80.41
2018-08-06T04:22:07.575Z,80.41
2018-08-06T04:24:00.267Z,80.32
2018-08-06T04:25:00.148Z,80.70
2018-08-06T04:26:52.824Z,80.41
2018-08-06T04:27:52.712Z,80.12
2018-08-06T04:29:45.415Z,80.32
2018-08-06T04:30:45.288Z,80.22
2018-08-06T04:32:37.989Z,80.51
2018-08-06T04:33:37.861Z,80.32
2018-08-06T04:35:30.568Z,80.03
2018-08-06T04:36:30.439Z,79.83
2018-08-06T04:38:23.170Z,79.83
2018-08-06T04:39:23.008Z,79.74
2018-08-06T04:41:15.714Z,79.55
2018-08-06T04:42:15.593Z,79.55
2018-08-06T04:44:08.285Z,79.83
2018-08-06T04:45:08.164Z,79.55
2018-08-06T04:47:00.844Z,79.30
2018-08-06T04:48:00.736Z,79.16
2018-08-06T04:49:53.433Z,79.01
2018-08-06T04:50:53.307Z,78.97
2018-08-06T04:52:45.984Z,79.36
2018-08-06T04:53:45.884Z,79.68
2018-08-06T04:55:38.584Z,79.16
2018-08-06T04:56:38.463Z,79.11
2018-08-06T04:58:31.138Z,78.92
2018-08-06T04:59:31.068Z,79.49
2018-08-06T05:01:23.729Z,79.11
2018-08-06T05:02:23.602Z,78.82
2018-08-06T05:04:16.306Z,78.15
2018-08-06T05:05:16.212Z,78.44
2018-08-06T05:07:08.876Z,77.86
2018-08-06T05:08:08.769Z,77.76
2018-08-06T05:10:01.460Z,78.25
2018-08-06T05:11:01.342Z,77.23
2018-08-06T05:12:54.020Z,76.75
2018-08-06T05:13:53.913Z,77.23
2018-08-06T05:15:46.607Z,76.84
2018-08-06T05:16:46.481Z,75.98
2018-08-06T05:18:39.183Z,75.98
2018-08-06T05:19:39.055Z,76.02
2018-08-06T05:21:31.732Z,75.35
2018-08-06T05:22:31.636Z,75.35
2018-08-06T05:24:24.331Z,75.82
2018-08-06T05:25:24.211Z,74.29
2018-08-06T05:27:16.892Z,74.68
2018-08-06T05:28:16.789Z,73.91
2018-08-06T05:30:09.513Z,74.48
2018-08-06T05:31:09.431Z,74.58
2018-08-06T05:33:02.066Z,74.10
2018-08-06T05:34:01.970Z,74.29
2018-08-06T05:35:54.667Z,74.39
2018-08-06T05:36:54.550Z,74.48
2018-08-06T05:38:47.235Z,74.68
2018-08-06T05:39:47.136Z,74.48
2018-08-06T05:41:39.831Z,74.39
2018-08-06T05:42:39.711Z,74.29
2018-08-06T05:44:32.402Z,74.29
2018-08-06T05:45:32.278Z,74.29
2018-08-06T05:47:24.957Z,74.68
2018-08-06T05:48:24.853Z,74.10
2018-08-06T05:50:17.549Z,74.68
2018-08-06T05:51:17.451Z,74.39
2018-08-06T05:53:10.114Z,73.08
2018-08-06T05:54:10.014Z,73.56
2018-08-06T05:56:02.711Z,73.94
2018-08-06T05:57:02.584Z,72.89
2018-08-06T05:58:55.260Z,72.12
2018-08-06T05:59:55.161Z,72.12
2018-08-06T06:01:47.861Z,72.22
2018-08-06T06:02:47.747Z,72.12
2018-08-06T06:04:40.443Z,71.83
2018-08-06T06:05:40.316Z,71.93
2018-08-06T06:07:33.001Z,71.87
2018-08-06T06:08:32.894Z,70.90
2018-08-06T06:10:25.590Z,70.43
2018-08-06T06:11:25.487Z,70.33
2018-08-06T06:13:18.150Z,71.00
2018-08-06T06:14:18.044Z,71.29
2018-08-06T06:16:10.749Z,71.10
2018-08-06T06:17:10.626Z,70.81
2018-08-06T06:19:03.344Z,71.58
2018-08-06T06:20:03.214Z,71.19
2018-08-06T06:21:55.926Z,70.84
2018-08-06T06:22:55.792Z,70.62
2018-08-06T06:24:48.484Z,70.27
2018-08-06T06:25:48.396Z,69.21
2018-08-06T06:27:41.047Z,69.40
2018-08-06T06:28:40.996Z,69.02
2018-08-06T06:30:33.675Z,68.92
2018-08-06T06:31:33.515Z,68.29
2018-08-06T06:33:26.200Z,67.32
2018-08-06T06:34:26.155Z,67.61
2018-08-06T06:36:18.797Z,66.65
2018-08-06T06:37:18.674Z,66.68
2018-08-06T06:39:11.373Z,66.20
2018-08-06T06:40:11.249Z,65.56
2018-08-06T06:42:03.928Z,60.03
2018-08-06T06:43:03.829Z,53.50
2018-08-06T06:44:56.532Z,43.95
2018-08-06T06:45:56.423Z,40.80
2018-08-06T06:47:49.106Z,36.58
2018-08-06T06:48:49.039Z,35.35
2018-08-06T06:50:41.725Z,33.14
2018-08-06T06:51:41.609Z,32.19
2018-08-06T06:53:34.304Z,30.57
2018-08-06T06:54:34.289Z,29.97
2018-08-06T06:56:26.932Z,29.62
2018-08-06T06:57:26.824Z,28.95
2018-08-06T06:59:19.548Z,28.08
2018-08-06T07:00:19.429Z,27.09
2018-08-06T07:02:12.134Z,26.92
2018-08-06T07:03:12.049Z,26.64
2018-08-06T07:05:04.785Z,25.76
2018-08-06T07:06:04.672Z,26.25
2018-08-06T07:07:57.385Z,25.87
2018-08-06T07:08:57.293Z,24.90
2018-08-06T07:10:50.021Z,24.71
2018-08-06T07:11:49.916Z,24.53
2018-08-06T07:13:42.675Z,24.41
2018-08-06T07:14:42.532Z,24.12
2018-08-06T07:16:35.264Z,23.74
2018-08-06T07:17:35.160Z,24.24
2018-08-06T07:19:27.892Z,22.96
2018-08-06T07:20:27.780Z,22.67
2018-08-06T07:22:20.496Z,23.07
2018-08-06T07:23:20.401Z,23.06
2018-08-06T07:25:13.139Z,22.67
2018-08-06T07:26:13.034Z,22.67
2018-08-06T07:28:05.742Z,22.19
2018-08-06T07:29:05.660Z,22.11
2018-08-06T07:30:58.395Z,21.81
2018-08-06T07:31:58.296Z,21.23
2018-08-06T07:33:51.038Z,21.13
2018-08-06T07:34:50.924Z,21.83
2018-08-06T07:36:43.657Z,21.53
2018-08-06T07:37:43.554Z,21.64
2018-08-06T07:39:36.282Z,21.14
2018-08-06T07:40:36.182Z,21.42
2018-08-06T07:42:28.890Z,21.34
2018-08-06T07:43:28.802Z,21.14
2018-08-06T07:45:21.552Z,20.94
2018-08-06T07:46:21.434Z,21.23
2018-08-06T07:48:14.177Z,21.82
2018-08-06T07:49:14.057Z,21.53
2018-08-06T07:51:06.795Z,20.95
2018-08-06T07:52:06.690Z,21.45
2018-08-06T07:53:59.407Z,21.04
2018-08-06T07:54:59.318Z,21.04
2018-08-06T07:56:52.053Z,20.57
2018-08-06T07:57:51.940Z,20.47
2018-08-06T07:59:44.715Z,20.67
2018-08-06T08:00:44.572Z,20.27
2018-08-06T08:02:37.292Z,20.47
2018-08-06T08:03:37.211Z,19.98
2018-08-06T08:05:29.936Z,20.36
2018-08-06T08:06:29.900Z,20.27
2018-08-06T08:08:22.553Z,20.54
2018-08-06T08:09:22.470Z,21.22
2018-08-06T08:11:15.197Z,21.23
2018-08-06T08:12:15.097Z,20.65
2018-08-06T08:14:07.817Z,20.25
2018-08-06T08:15:07.729Z,20.33
2018-08-06T08:17:00.455Z,21.81
2018-08-06T08:18:00.358Z,20.81
2018-08-06T08:19:53.111Z,21.50
2018-08-06T08:20:52.982Z,21.70
2018-08-06T08:22:45.722Z,21.51
2018-08-06T08:23:45.624Z,21.11
2018-08-06T08:25:38.364Z,22.16
2018-08-06T08:26:38.259Z,22.25
2018-08-06T08:28:30.966Z,22.05
2018-08-06T08:29:30.886Z,22.82
2018-08-06T08:31:23.608Z,23.58
2018-08-06T08:32:23.523Z,24.46
2018-08-06T08:34:16.223Z,25.78
2018-08-06T08:35:16.123Z,26.38
2018-08-06T08:37:08.852Z,26.73
2018-08-06T08:38:08.745Z,27.91
2018-08-06T08:40:01.478Z,28.49
2018-08-06T08:41:01.364Z,28.18
2018-08-06T08:42:54.081Z,28.85
2018-08-06T08:43:53.989Z,29.63
2018-08-06T08:45:46.715Z,31.35
2018-08-06T08:46:46.604Z,32.03
2018-08-06T08:48:39.308Z,32.39
2018-08-06T08:49:39.224Z,32.76
2018-08-06T08:51:31.955Z,33.92
2018-08-06T08:52:31.924Z,33.04
2018-08-06T08:54:24.569Z,34.59
2018-08-06T08:55:24.445Z,34.68
2018-08-06T08:57:17.149Z,34.86
2018-08-06T08:58:17.048Z,35.15
2018-08-06T09:00:09.771Z,35.93
2018-08-06T09:01:09.665Z,35.34
2018-08-06T09:03:02.362Z,35.71
2018-08-06T09:04:02.263Z,35.91
2018-08-06T09:05:54.979Z,35.61
2018-08-06T09:06:54.867Z,35.61
2018-08-06T09:08:47.560Z,36.10
2018-08-06T09:09:47.473Z,36.30
2018-08-06T09:11:40.184Z,34.84
2018-08-06T09:12:40.069Z,35.33
2018-08-06T09:14:32.806Z,35.81
2018-08-06T09:15:32.664Z,35.42
2018-08-06T09:17:25.361Z,34.74
2018-08-06T09:18:25.276Z,34.35
2018-08-06T09:20:17.979Z,35.13
2018-08-06T09:21:17.922Z,34.25
2018-08-06T09:23:10.561Z,35.03
2018-08-06T09:24:10.466Z,35.23
2018-08-06T09:26:03.183Z,34.64
2018-08-06T09:27:03.058Z,34.55
2018-08-06T09:28:55.756Z,34.84
2018-08-06T09:29:55.655Z,34.55
2018-08-06T09:31:48.367Z,34.37
2018-08-06T09:32:48.254Z,34.25
2018-08-06T09:34:40.945Z,33.69
2018-08-06T09:35:40.847Z,35.13
2018-08-06T09:37:33.571Z,34.66
2018-08-06T09:38:33.444Z,33.39
2018-08-06T09:40:26.167Z,34.55
2018-08-06T09:41:26.042Z,34.25
2018-08-06T09:43:18.734Z,34.06
2018-08-06T09:44:18.677Z,34.64
2018-08-06T09:46:11.360Z,35.33
2018-08-06T09:47:11.235Z,34.16
2018-08-06T09:49:03.932Z,34.35
2018-08-06T09:50:03.833Z,35.71
2018-08-06T09:51:56.543Z,33.59
2018-08-06T09:52:56.426Z,33.11
2018-08-06T09:54:49.126Z,33.39
2018-08-06T09:57:01.828Z,32.71
2018-08-06T09:58:01.716Z,33.29
2018-08-06T10:02:47.029Z,31.84
2018-08-06T10:03:46.914Z,32.52
2018-08-06T10:05:39.783Z,32.52
2018-08-06T10:06:39.664Z,33.48
2018-08-06T10:08:32.240Z,32.81
2018-08-06T10:09:32.116Z,32.91
2018-08-06T10:11:24.836Z,32.62
2018-08-06T10:12:24.705Z,33.49
2018-08-06T10:14:17.448Z,32.32
2018-08-06T10:15:17.347Z,32.63
2018-08-06T10:20:02.623Z,31.27
2018-08-06T10:21:02.513Z,31.74
2018-08-06T10:22:55.259Z,32.23
2018-08-06T10:23:55.138Z,32.62
2018-08-06T10:25:47.844Z,32.52
2018-08-06T10:26:47.740Z,32.62
2018-08-06T10:28:40.424Z,32.73
2018-08-06T10:29:40.332Z,32.24
2018-08-06T10:31:33.039Z,32.73
2018-08-06T10:32:32.928Z,31.54
2018-08-06T10:34:25.623Z,31.45
2018-08-06T10:35:25.528Z,31.93
2018-08-06T10:37:18.267Z,32.42
2018-08-06T10:38:18.239Z,32.71
2018-08-06T10:40:10.806Z,32.24
2018-08-06T10:41:10.716Z,32.73
2018-08-06T10:43:03.422Z,32.53
2018-08-06T10:44:03.307Z,32.73
2018-08-06T10:45:56.016Z,32.15
2018-08-06T10:46:55.906Z,32.24
2018-08-06T10:48:48.691Z,31.37
2018-08-06T10:49:48.503Z,31.17
2018-08-06T10:51:41.212Z,31.06
2018-08-06T10:52:41.091Z,31.54
2018-08-06T10:54:33.783Z,31.74
2018-08-06T10:55:33.683Z,31.16
2018-08-06T10:57:26.398Z,32.13
2018-08-06T10:58:26.284Z,32.91
2018-08-06T11:00:18.975Z,32.52
2018-08-06T11:01:18.892Z,32.32
2018-08-06T11:03:11.596Z,31.95
2018-08-06T11:04:11.478Z,32.24
2018-08-06T11:06:04.188Z,32.15
2018-08-06T11:07:04.100Z,32.55
2018-08-06T11:08:56.803Z,31.96
2018-08-06T11:09:56.671Z,31.38
2018-08-06T11:11:49.379Z,31.38
2018-08-06T11:12:49.264Z,30.81
2018-08-06T11:14:41.976Z,30.99
2018-08-06T11:15:41.864Z,30.90
2018-08-06T11:17:34.575Z,30.60
2018-08-06T11:18:34.459Z,31.57
2018-08-06T11:20:27.171Z,31.28
2018-08-06T11:21:27.060Z,30.60
2018-08-06T11:23:19.767Z,30.99
2018-08-06T11:24:19.654Z,31.57
2018-08-06T11:26:12.368Z,31.19
2018-08-06T11:27:12.258Z,31.38
2018-08-06T11:29:04.950Z,31.88
2018-08-06T11:30:04.855Z,31.67
2018-08-06T11:31:57.591Z,31.40
2018-08-06T11:32:57.478Z,31.40
2018-08-06T11:34:50.184Z,30.24
2018-08-06T11:35:50.090Z,29.56
2018-08-06T11:37:42.795Z,30.42
2018-08-06T11:38:42.686Z,30.71
2018-08-06T11:40:35.407Z,29.66
2018-08-06T11:41:35.318Z,29.66
2018-08-06T11:43:28.005Z,29.95
2018-08-06T11:44:27.890Z,30.05
2018-08-06T11:46:20.610Z,29.64
2018-08-06T11:47:20.498Z,30.42
2018-08-06T11:49:13.191Z,31.10
2018-08-06T11:50:13.189Z,30.32
2018-08-06T11:52:05.806Z,30.22
2018-08-06T11:53:05.694Z,29.75
2018-08-06T11:54:58.400Z,29.56
2018-08-06T11:55:58.298Z,30.24
2018-08-06T11:57:51.009Z,29.56
2018-08-06T11:58:50.896Z,30.05
2018-08-06T12:00:43.613Z,30.63
2018-08-06T12:01:43.500Z,29.86
2018-08-06T12:03:36.203Z,29.96
2018-08-06T12:04:36.118Z,29.67
2018-08-06T12:06:28.820Z,28.59
2018-08-06T12:07:28.706Z,28.59
2018-08-06T12:09:21.403Z,29.27
2018-08-06T12:10:21.325Z,29.36
2018-08-06T12:12:14.025Z,29.18
2018-08-06T12:13:13.909Z,29.46
2018-08-06T12:15:06.648Z,29.75
2018-08-06T12:16:06.521Z,29.47
2018-08-06T12:17:59.222Z,28.59
2018-08-06T12:18:59.106Z,28.79
2018-08-06T12:20:51.874Z,29.86
2018-08-06T12:21:51.707Z,28.59
2018-08-06T12:23:44.399Z,28.99
2018-08-06T12:24:44.320Z,28.99
2018-08-06T12:26:37.020Z,28.89
2018-08-06T12:27:36.902Z,29.18
2018-08-06T12:29:29.622Z,29.20
2018-08-06T12:30:29.520Z,28.91
2018-08-06T12:32:22.242Z,28.40
2018-08-06T12:33:22.122Z,28.99
2018-08-06T12:35:15.000Z,29.28
2018-08-06T12:36:14.902Z,28.71
2018-08-06T12:38:07.680Z,28.42
2018-08-06T12:39:07.496Z,29.20
2018-08-06T12:41:00.208Z,29.20
2018-08-06T12:42:00.093Z,28.71
2018-08-06T12:43:52.792Z,29.20
2018-08-06T12:44:52.697Z,29.30
2018-08-06T12:46:45.404Z,29.00
2018-08-06T12:47:45.290Z,28.69
2018-08-06T12:49:38.010Z,28.81
2018-08-06T12:50:37.914Z,28.61
2018-08-06T12:52:30.623Z,28.61
2018-08-06T12:53:30.507Z,27.91
2018-08-06T12:55:23.201Z,28.22
2018-08-06T12:56:23.110Z,28.11
2018-08-06T12:58:15.832Z,27.93
2018-08-06T12:59:15.719Z,28.42
2018-08-06T13:01:08.436Z,28.42
2018-08-06T13:02:09.388Z,28.71
2018-08-06T13:04:01.024Z,28.22
2018-08-06T13:05:00.944Z,28.71
2018-08-06T13:06:53.640Z,27.83
2018-08-06T13:07:53.524Z,26.76
2018-08-06T13:09:46.227Z,26.17
2018-08-06T13:10:46.138Z,27.05
2018-08-06T13:12:38.861Z,27.34
2018-08-06T13:13:38.725Z,27.16
2018-08-06T13:15:31.445Z,26.78
2018-08-06T13:16:31.349Z,25.61
2018-08-06T13:18:24.068Z,25.90
2018-08-06T13:19:23.941Z,25.42
2018-08-06T13:21:16.666Z,25.90
2018-08-06T13:22:16.553Z,25.61
2018-08-06T13:24:09.253Z,25.90
2018-08-06T13:25:09.291Z,26.68
2018-08-06T13:27:01.882Z,25.51
2018-08-06T13:28:01.758Z,24.82
2018-08-06T13:29:54.467Z,24.63
2018-08-06T13:30:54.373Z,25.42
2018-08-06T13:32:47.103Z,25.23
2018-08-06T13:33:46.983Z,25.42
2018-08-06T13:35:39.685Z,25.32
2018-08-06T13:36:39.602Z,26.29
2018-08-06T13:38:32.312Z,25.81
2018-08-06T13:39:32.185Z,25.90
2018-08-06T13:41:24.904Z,25.61
2018-08-06T13:42:24.789Z,26.10
2018-08-06T13:44:17.551Z,25.51
2018-08-06T13:45:17.388Z,25.89
2018-08-06T13:47:10.181Z,25.90
2018-08-06T13:48:09.995Z,25.42
2018-08-06T13:50:02.701Z,26.87
2018-08-06T13:51:02.599Z,26.98
2018-08-06T13:52:55.348Z,26.39
2018-08-06T13:53:55.213Z,25.60
2018-08-06T13:55:47.906Z,25.22
2018-08-06T13:56:47.811Z,25.42
2018-08-06T13:58:40.526Z,24.24
2018-08-06T13:59:40.421Z,24.63
2018-08-06T14:01:33.131Z,24.63
2018-08-06T14:02:33.024Z,24.73
2018-08-06T14:04:25.726Z,24.82
2018-08-06T14:05:25.671Z,24.63
2018-08-06T14:07:18.345Z,26.20
2018-08-06T14:08:18.230Z,25.04
2018-08-06T14:10:10.944Z,24.15
2018-08-06T14:11:10.887Z,24.05
2018-08-06T14:13:03.558Z,24.74
2018-08-06T14:14:03.443Z,24.65
2018-08-06T14:15:56.183Z,24.35
2018-08-06T14:16:56.111Z,24.15
2018-08-06T14:18:48.767Z,24.44
2018-08-06T14:19:48.671Z,24.25
2018-08-06T14:21:41.389Z,24.46
2018-08-06T14:22:41.279Z,23.97
2018-08-06T14:24:33.970Z,24.75
2018-08-06T14:25:33.878Z,23.87
2018-08-06T14:27:26.600Z,24.26
2018-08-06T14:28:26.482Z,24.05
2018-08-06T14:30:19.176Z,24.15
2018-08-06T14:31:19.082Z,24.15
2018-08-06T14:33:11.795Z,23.96
2018-08-06T14:34:11.691Z,24.25
2018-08-06T14:36:04.394Z,24.35
2018-08-06T14:37:04.284Z,24.64
2018-08-06T14:38:56.977Z,24.74
2018-08-06T14:39:56.883Z,24.36
2018-08-06T14:41:49.612Z,24.26
2018-08-06T14:42:49.504Z,24.26
2018-08-06T14:44:42.196Z,24.85
2018-08-06T14:45:42.098Z,24.46
2018-08-06T14:47:34.811Z,23.87
2018-08-06T14:48:34.707Z,23.79
2018-08-06T14:50:28.389Z,23.98
2018-08-06T14:51:28.300Z,23.69
2018-08-06T14:53:21.007Z,23.69
2018-08-06T14:54:20.899Z,22.81
2018-08-06T14:56:13.605Z,23.10
2018-08-06T14:57:13.496Z,23.69
2018-08-06T14:59:06.201Z,23.79
2018-08-06T15:00:06.104Z,23.00
2018-08-06T15:01:58.831Z,23.88
2018-08-06T15:02:58.701Z,23.69
2018-08-06T15:04:51.445Z,23.68
2018-08-06T15:05:51.310Z,23.79
2018-08-06T15:07:44.032Z,24.18
2018-08-06T15:08:43.902Z,24.27
2018-08-06T15:10:36.598Z,24.08
2018-08-06T15:11:36.508Z,24.08
2018-08-06T15:13:29.223Z,24.27
2018-08-06T15:14:29.112Z,24.37
2018-08-06T15:16:21.826Z,24.66
2018-08-06T15:17:21.711Z,24.66
2018-08-06T15:19:14.410Z,25.56
2018-08-06T15:20:14.311Z,25.16
2018-08-06T15:22:07.031Z,24.18
2018-08-06T15:23:06.917Z,25.35
2018-08-06T15:24:59.790Z,25.65
2018-08-06T15:25:59.703Z,24.27
2018-08-06T15:27:52.414Z,24.85
2018-08-06T15:28:52.298Z,24.57
2018-08-06T15:30:44.994Z,23.97
2018-08-06T15:31:44.901Z,24.75
2018-08-06T15:33:37.680Z,25.34
2018-08-06T15:34:37.503Z,25.26
2018-08-06T15:36:30.212Z,24.37
2018-08-06T15:37:30.153Z,23.98
2018-08-06T15:39:22.791Z,24.57
2018-08-06T15:40:22.694Z,25.05
2018-08-06T15:42:15.407Z,25.26
2018-08-06T15:43:15.294Z,24.27
2018-08-06T15:45:07.985Z,24.37
2018-08-06T15:46:07.891Z,24.18
2018-08-06T15:48:00.609Z,25.27
2018-08-06T15:49:00.490Z,24.77
2018-08-06T15:50:53.192Z,24.38
2018-08-06T15:51:53.123Z,24.68
2018-08-06T15:53:46.870Z,24.77
2018-08-06T15:54:46.756Z,24.58
2018-08-06T15:56:39.487Z,24.29
2018-08-06T15:57:39.367Z,24.86
2018-08-06T15:59:32.066Z,24.37
2018-08-06T16:00:31.970Z,24.57
2018-08-06T16:02:24.679Z,24.57
2018-08-06T16:03:24.618Z,25.35
2018-08-06T16:05:17.262Z,24.57
2018-08-06T16:06:17.166Z,24.87
2018-08-06T16:08:09.885Z,24.66
2018-08-06T16:09:09.779Z,25.16
2018-08-06T16:11:02.487Z,25.74
2018-08-06T16:12:02.375Z,24.76
2018-08-06T16:13:55.071Z,25.24
2018-08-06T16:14:54.979Z,26.12
2018-08-06T16:16:47.692Z,24.65
2018-08-06T16:17:47.579Z,25.34
2018-08-06T16:19:40.283Z,25.05
2018-08-06T16:20:40.249Z,25.34
2018-08-06T16:22:32.897Z,25.35
2018-08-06T16:23:32.781Z,24.66
2018-08-06T16:25:25.479Z,25.45
2018-08-06T16:26:25.401Z,24.76
2018-08-06T16:28:18.100Z,25.65
2018-08-06T16:29:17.985Z,25.55
2018-08-06T16:31:10.757Z,25.45
2018-08-06T16:32:10.588Z,26.23
2018-08-06T16:34:03.281Z,25.37
2018-08-06T16:35:03.182Z,25.37
2018-08-06T16:36:55.908Z,24.47
2018-08-06T16:37:55.810Z,24.47
2018-08-06T16:39:48.489Z,24.37
2018-08-06T16:40:48.392Z,24.97
2018-08-06T16:42:41.119Z,25.45
2018-08-06T16:43:40.988Z,24.57
2018-08-06T16:45:33.695Z,25.26
2018-08-06T16:46:33.604Z,25.35
2018-08-06T16:48:26.318Z,24.86
2018-08-06T16:49:26.199Z,24.47
2018-08-06T16:51:18.918Z,24.86
2018-08-06T16:52:18.829Z,24.37
2018-08-06T16:54:11.502Z,24.47
2018-08-06T16:55:11.405Z,24.26
2018-08-06T16:57:04.135Z,24.07
2018-08-06T16:58:04.023Z,24.36
2018-08-06T16:59:56.718Z,24.36
2018-08-06T17:00:56.697Z,24.46
2018-08-06T17:02:49.347Z,24.86
2018-08-06T17:03:49.229Z,24.66
2018-08-06T17:05:41.923Z,24.37
2018-08-06T17:06:41.878Z,24.07
2018-08-06T17:08:34.554Z,24.46
2018-08-06T17:09:34.444Z,24.46
2018-08-06T17:11:27.159Z,24.75
2018-08-06T17:12:27.066Z,24.36
2018-08-06T17:14:19.756Z,24.85
2018-08-06T17:15:19.666Z,24.75
2018-08-06T17:17:12.387Z,24.36
2018-08-06T17:18:12.272Z,24.55
2018-08-06T17:20:04.971Z,24.65
2018-08-06T17:21:04.870Z,25.24
2018-08-06T17:22:57.587Z,24.46
2018-08-06T17:23:57.468Z,24.85
2018-08-06T17:25:50.156Z,25.44
2018-08-06T17:26:50.065Z,25.73
2018-08-06T17:28:42.784Z,25.44
2018-08-06T17:29:42.669Z,24.46
2018-08-06T17:31:35.382Z,25.24
2018-08-06T17:32:35.270Z,25.62
2018-08-06T17:34:27.971Z,25.43
2018-08-06T17:35:27.878Z,25.23
2018-08-06T17:37:20.591Z,25.33
2018-08-06T17:38:20.477Z,25.42
2018-08-06T17:40:13.183Z,25.81
2018-08-06T17:41:13.079Z,25.32
2018-08-06T17:43:05.805Z,25.32
2018-08-06T17:44:05.756Z,25.42
2018-08-06T17:45:58.380Z,25.71
2018-08-06T17:46:58.285Z,25.61
2018-08-06T17:48:51.009Z,25.89
2018-08-06T17:49:50.897Z,26.09
2018-08-06T17:51:43.609Z,26.38
2018-08-06T17:52:43.492Z,26.48
2018-08-06T17:54:36.187Z,28.04
2018-08-06T17:55:36.171Z,27.65
2018-08-06T17:57:28.810Z,27.75
2018-08-06T17:58:28.697Z,27.75
2018-08-06T18:00:21.413Z,28.33
2018-08-06T18:01:21.336Z,28.32
2018-08-06T18:03:14.165Z,28.61
2018-08-06T18:04:13.925Z,29.30
2018-08-06T18:06:06.625Z,29.57
2018-08-06T18:07:06.524Z,29.67
2018-08-06T18:08:59.311Z,30.63
2018-08-06T18:09:59.128Z,30.34
2018-08-06T18:11:51.843Z,30.34
2018-08-06T18:12:51.726Z,30.63
2018-08-06T18:14:44.465Z,30.81
2018-08-06T18:15:44.337Z,31.10
2018-08-06T18:17:37.065Z,30.42
2018-08-06T18:18:36.950Z,30.22
2018-08-06T18:20:29.640Z,30.31
2018-08-06T18:21:29.541Z,29.93
2018-08-06T18:23:22.252Z,29.64
2018-08-06T18:24:22.136Z,29.83
2018-08-06T18:26:14.830Z,29.74
2018-08-06T18:27:14.734Z,29.83
2018-08-06T18:29:07.445Z,29.74
2018-08-06T18:30:07.327Z,29.93
2018-08-06T18:32:00.040Z,30.42
2018-08-06T18:32:59.928Z,30.62
2018-08-06T18:34:52.616Z,31.10
2018-08-06T18:35:52.514Z,31.40
2018-08-06T18:37:45.737Z,32.84
2018-08-06T18:38:45.618Z,32.65
2018-08-06T18:40:38.310Z,33.61
2018-08-06T18:41:38.248Z,33.02
2018-08-06T18:43:30.921Z,33.61
2018-08-06T18:44:30.808Z,33.98
2018-08-06T18:46:23.515Z,34.27
2018-08-06T18:47:23.403Z,34.66
2018-08-06T18:49:16.089Z,35.25
2018-08-06T18:50:15.994Z,35.42
2018-08-06T18:52:08.757Z,35.71
2018-08-06T18:53:08.587Z,35.61
2018-08-06T18:55:01.283Z,36.00
2018-08-06T18:56:01.185Z,35.91
2018-08-06T18:57:53.976Z,36.18
2018-08-06T18:58:53.816Z,36.67
2018-08-06T19:00:46.500Z,36.67
2018-08-06T19:01:46.402Z,36.67
2018-08-06T19:03:39.113Z,36.67
2018-08-06T19:04:39.000Z,36.75
2018-08-06T19:06:32.211Z,37.14
2018-08-06T19:07:32.178Z,37.43
2018-08-06T19:09:24.781Z,37.04
2018-08-06T19:10:24.681Z,37.04
2018-08-06T19:12:17.393Z,37.70
2018-08-06T19:13:17.275Z,37.80
2018-08-06T19:15:09.973Z,38.29
2018-08-06T19:16:09.876Z,37.80
2018-08-06T19:18:02.587Z,37.99
2018-08-06T19:19:02.473Z,37.90
2018-08-06T19:20:55.655Z,37.90
2018-08-06T19:21:55.561Z,37.12
2018-08-06T19:23:48.266Z,38.09
2018-08-06T19:24:48.147Z,37.49
2018-08-06T19:26:40.851Z,38.19
2018-08-06T19:27:40.743Z,37.51
2018-08-06T19:29:33.425Z,37.80
2018-08-06T19:30:33.326Z,37.99
2018-08-06T19:32:26.029Z,38.56
2018-08-06T19:33:25.912Z,39.26
2018-08-06T19:35:18.603Z,39.04
2018-08-06T19:36:18.505Z,38.95
2018-08-06T19:38:11.224Z,39.14
2018-08-06T19:39:11.107Z,39.14
2018-08-06T19:41:03.943Z,39.24
2018-08-06T19:42:03.691Z,39.14
2018-08-06T19:43:56.402Z,39.61
2018-08-06T19:44:56.294Z,40.09
2018-08-06T19:46:48.997Z,40.67
2018-08-06T19:47:48.882Z,42.71
2018-08-06T19:49:41.576Z,44.37
2018-08-06T19:50:41.476Z,44.92
2018-08-06T19:52:34.184Z,44.54
2018-08-06T19:53:34.069Z,45.41
2018-08-06T19:55:26.777Z,45.51
2018-08-06T19:56:26.678Z,45.41
2018-08-06T19:58:19.384Z,45.78
2018-08-06T19:59:19.352Z,45.48
2018-08-06T20:01:11.962Z,45.78
2018-08-06T20:02:11.889Z,45.97
2018-08-06T20:04:04.584Z,44.88
2018-08-06T20:05:04.458Z,45.65
2018-08-06T20:06:57.164Z,45.95
2018-08-06T20:07:57.072Z,45.95
2018-08-06T20:09:49.762Z,47.02
2018-08-06T20:10:49.643Z,46.72
2018-08-06T20:12:42.336Z,46.33
2018-08-06T20:13:42.233Z,45.65
2018-08-06T20:15:34.947Z,45.64
2018-08-06T20:16:34.829Z,45.95
2018-08-06T20:18:27.541Z,46.72
2018-08-06T20:19:27.421Z,46.51
2018-08-06T20:21:20.111Z,46.89
2018-08-06T20:22:20.035Z,46.80
2018-08-06T20:24:12.754Z,47.09
2018-08-06T20:25:12.651Z,47.28
2018-08-06T20:27:05.334Z,47.67
2018-08-06T20:28:05.229Z,47.96
2018-08-06T20:29:57.943Z,47.77
2018-08-06T20:30:57.824Z,47.86
2018-08-06T20:32:50.511Z,47.77
2018-08-06T20:33:50.414Z,47.86
2018-08-06T20:35:43.127Z,48.06
2018-08-06T20:36:43.033Z,47.86
2018-08-06T20:38:35.721Z,48.93
2018-08-06T20:39:35.616Z,48.32
2018-08-06T20:41:28.297Z,49.19
2018-08-06T20:42:28.216Z,49.77
2018-08-06T20:44:20.895Z,49.29
2018-08-06T20:45:20.830Z,49.58
2018-08-06T20:47:13.509Z,49.00
2018-08-06T20:48:13.410Z,49.29
2018-08-06T20:50:06.450Z,49.10
2018-08-06T20:51:05.999Z,49.58
2018-08-06T20:52:58.682Z,49.97
2018-08-06T20:53:58.580Z,50.55
2018-08-06T20:55:51.287Z,50.72
2018-08-06T20:56:51.183Z,51.40
2018-08-06T20:58:43.885Z,51.40
2018-08-06T20:59:43.789Z,50.82
2018-08-06T21:01:36.482Z,51.01
2018-08-06T21:02:36.507Z,51.40
2018-08-06T21:04:29.081Z,51.30
2018-08-06T21:05:28.971Z,52.08
2018-08-06T21:07:21.663Z,51.47
2018-08-06T21:08:21.562Z,52.14
2018-08-06T21:10:14.295Z,52.53
2018-08-06T21:11:14.182Z,52.44
2018-08-06T21:13:06.858Z,52.63
2018-08-06T21:14:06.740Z,53.21
2018-08-06T21:15:59.434Z,53.02
2018-08-06T21:16:59.337Z,52.53
2018-08-06T21:18:52.042Z,53.11
2018-08-06T21:19:51.920Z,52.92
2018-08-06T21:21:44.613Z,53.21
2018-08-06T21:22:44.513Z,53.21
2018-08-06T21:24:37.255Z,53.41
2018-08-06T21:25:37.132Z,53.50
2018-08-06T21:27:29.812Z,53.59
2018-08-06T21:28:29.716Z,53.99
2018-08-06T21:30:22.935Z,54.17
2018-08-06T21:31:22.812Z,54.25
2018-08-06T21:33:15.554Z,53.99
2018-08-06T21:34:15.396Z,54.15
2018-08-06T21:36:08.084Z,54.15
2018-08-06T21:37:07.983Z,54.15
2018-08-06T21:39:00.741Z,53.86
2018-08-06T21:40:00.571Z,53.96
2018-08-06T21:41:53.763Z,53.96
2018-08-06T21:42:53.666Z,54.05
2018-08-06T21:44:46.539Z,55.02
2018-08-06T21:45:46.295Z,55.31
2018-08-06T21:47:38.946Z,55.31
2018-08-06T21:48:38.838Z,55.21
2018-08-06T21:50:31.595Z,55.70
2018-08-06T21:51:31.428Z,56.57
2018-08-06T21:53:24.140Z,56.25
2018-08-06T21:54:24.022Z,55.96
2018-08-06T21:56:16.712Z,55.67
2018-08-06T21:57:16.617Z,55.38
2018-08-06T21:59:09.309Z,55.96
